Time;durP1;ratioP1;P1;durP2;ratioP2;P2;SDS_P1;SDS_P2;PMS_P1;PMS_P2;Temp;Humidity;BMP_temperature;BMP_pressure;BME280_temperature;BME280_humidity;BME280_pressure;Samples;Min_cycle;Max_cycle;Signal;HPM_P1;HPM_P2
2022/01/21 00:01:24;;;;;;;67.20;44.97;;;1.00;99.90;;;;;;4952772;29;20034;-59
2022/01/21 00:03:50;;;;;;;79.32;44.88;;;1.20;99.90;;;;;;4949917;28;20117;-59
2022/01/21 00:06:16;;;;;;;84.00;43.70;;;1.00;99.90;;;;;;4949880;28;20545;-59
2022/01/21 00:08:45;;;;;;;56.97;34.85;;;1.00;99.90;;;;;;4964187;28;20418;-59
2022/01/21 00:11:13;;;;;;;74.88;42.08;;;1.00;99.90;;;;;;4950674;29;20452;-59
2022/01/21 00:13:38;;;;;;;80.57;43.92;;;1.10;99.90;;;;;;4952755;29;20082;-59
2022/01/21 00:16:08;;;;;;;35.03;23.27;;;1.10;99.90;;;;;;4949783;29;20094;-59
2022/01/21 00:18:36;;;;;;;38.92;24.33;;;1.40;99.90;;;;;;4950907;29;20074;-59
2022/01/21 00:31:59;;;;;;;45.65;24.85;;;1.80;99.90;;;;;;4952151;29;20073;-57
2022/01/21 00:34:25;;;;;;;45.35;26.10;;;1.80;99.90;;;;;;4951173;28;20467;-57
2022/01/21 00:36:51;;;;;;;35.47;22.88;;;1.90;99.90;;;;;;4949781;29;20074;-56
2022/01/21 00:39:21;;;;;;;37.92;19.67;;;1.80;99.90;;;;;;4950635;28;20031;-59
2022/01/21 00:42:09;;;;;;;41.03;25.52;;;1.80;99.90;;;;;;4949605;28;20031;-59
2022/01/21 00:44:35;;;;;;;34.38;19.45;;;1.60;99.90;;;;;;4936527;29;20149;-59
2022/01/21 00:47:01;;;;;;;35.35;20.88;;;1.70;99.90;;;;;;4951690;28;20048;-59
2022/01/21 00:49:26;;;;;;;49.38;31.00;;;1.70;99.90;;;;;;4952965;28;20030;-59
2022/01/21 00:51:52;;;;;;;62.03;40.35;;;1.60;99.90;;;;;;4953087;28;20491;-60
2022/01/21 00:54:19;;;;;;;57.25;36.03;;;1.40;99.90;;;;;;4952870;29;20089;-59
2022/01/21 00:56:44;;;;;;;43.00;25.83;;;1.50;99.90;;;;;;4954565;29;20035;-58
2022/01/21 00:59:10;;;;;;;41.15;26.10;;;1.60;99.90;;;;;;4953741;29;20385;-59
2022/01/21 01:01:36;;;;;;;28.92;18.67;;;1.30;99.90;;;;;;4956353;29;20028;-59
2022/01/21 01:04:02;;;;;;;32.25;16.08;;;1.10;99.90;;;;;;4952926;29;20046;-59
2022/01/21 01:06:28;;;;;;;32.25;17.45;;;1.10;99.90;;;;;;4952541;28;20540;-59
2022/01/21 01:08:54;;;;;;;32.83;17.65;;;1.00;99.90;;;;;;4952494;28;20023;-59
2022/01/21 01:22:05;;;;;;;31.83;16.85;;;1.00;99.90;;;;;;4952421;29;20115;-59
2022/01/21 01:29:58;;;;;;;33.50;15.85;;;0.90;99.90;;;;;;4952265;29;20046;-60
2022/01/21 01:32:25;;;;;;;25.70;15.48;;;0.80;99.90;;;;;;4952307;29;20072;-59
2022/01/21 01:34:52;;;;;;;28.67;15.60;;;0.70;99.90;;;;;;4955283;29;20051;-59
2022/01/21 01:37:39;;;;;;;26.90;15.35;;;0.60;99.90;;;;;;4954783;29;20106;-59
2022/01/21 01:40:18;;;;;;;23.05;14.85;;;0.50;99.90;;;;;;4952149;29;20110;-59
2022/01/21 01:50:41;;;;;;;;;;;0.70;99.90;;;;;;4952685;29;20075;-59
2022/01/21 01:53:08;;;;;;;30.55;14.90;;;0.60;99.90;;;;;;4953698;28;19926;-59
2022/01/21 01:55:35;;;;;;;25.15;11.93;;;0.70;99.90;;;;;;4954620;29;20047;-59
2022/01/21 01:58:01;;;;;;;25.80;13.35;;;1.00;99.90;;;;;;4953402;29;20027;-60
2022/01/21 02:00:27;;;;;;;31.23;12.00;;;1.10;99.90;;;;;;4950800;28;20027;-60
2022/01/21 02:02:52;;;;;;;27.45;13.35;;;1.30;99.90;;;;;;4951942;29;20102;-58
2022/01/21 02:05:18;;;;;;;25.85;12.18;;;1.20;99.90;;;;;;4951616;29;20027;-60
2022/01/21 02:07:45;;;;;;;27.65;12.50;;;1.30;99.90;;;;;;4955731;28;20086;-60
2022/01/21 02:10:12;;;;;;;20.90;12.50;;;1.40;99.90;;;;;;4951839;28;20057;-59
2022/01/21 02:12:41;;;;;;;21.42;11.98;;;1.30;99.90;;;;;;4951558;28;20035;-60
2022/01/21 02:15:07;;;;;;;23.30;11.18;;;1.30;99.90;;;;;;4952776;28;20098;-60
2022/01/21 02:22:46;;;;;;;;;;;1.40;99.90;;;;;;4955870;29;20035;-59
2022/01/21 02:27:41;;;;;;;50.22;22.63;;;1.30;99.90;;;;;;4951422;29;20023;-59
2022/01/21 02:30:08;;;;;;;42.90;17.77;;;1.40;99.90;;;;;;4951190;29;20042;-60
2022/01/21 02:32:34;;;;;;;40.50;16.30;;;1.40;99.90;;;;;;4950144;29;20044;-59
2022/01/21 02:34:59;;;;;;;59.83;28.55;;;1.40;99.90;;;;;;4953297;29;20034;-59
2022/01/21 02:37:25;;;;;;;35.30;16.65;;;1.50;99.90;;;;;;4955015;29;20086;-60
2022/01/21 02:39:51;;;;;;;35.47;18.67;;;1.40;99.90;;;;;;4950586;29;20396;-59
2022/01/21 02:42:17;;;;;;;47.75;23.55;;;1.30;99.90;;;;;;4951211;28;20027;-59
2022/01/21 02:44:43;;;;;;;57.60;40.13;;;1.30;99.90;;;;;;4950925;29;20641;-60
2022/01/21 02:47:09;;;;;;;25.40;12.05;;;1.40;99.90;;;;;;4952155;29;20020;-60
2022/01/21 02:49:35;;;;;;;27.95;13.40;;;1.50;99.90;;;;;;4954059;29;20035;-59
2022/01/21 02:52:03;;;;;;;28.40;13.15;;;1.30;99.90;;;;;;4950801;29;20031;-59
2022/01/21 02:54:32;;;;;;;29.02;12.73;;;1.30;99.90;;;;;;4952254;29;20455;-59
2022/01/21 02:56:59;;;;;;;29.02;11.80;;;1.30;99.90;;;;;;4950477;28;20034;-59
2022/01/21 02:59:25;;;;;;;26.48;12.00;;;1.40;99.90;;;;;;4951491;29;20083;-60
2022/01/21 03:01:51;;;;;;;31.92;12.45;;;1.30;99.90;;;;;;4953656;28;20027;-59
2022/01/21 03:07:02;;;;;;;22.08;11.68;;;1.30;99.90;;;;;;4950609;29;20456;-59
2022/01/21 03:09:28;;;;;;;30.25;13.15;;;1.30;99.90;;;;;;4950244;29;20473;-60
2022/01/21 03:11:53;;;;;;;30.55;13.48;;;1.30;99.90;;;;;;4950091;29;20039;-60
2022/01/21 03:14:19;;;;;;;26.92;13.02;;;1.20;99.90;;;;;;4952016;29;20087;-60
2022/01/21 03:16:45;;;;;;;36.20;14.30;;;1.20;99.90;;;;;;4955067;28;20033;-59
2022/01/21 03:19:10;;;;;;;31.58;14.93;;;1.10;99.90;;;;;;4950251;28;20039;-60
2022/01/21 03:21:37;;;;;;;31.08;14.65;;;1.10;99.90;;;;;;4950363;29;20028;-59
2022/01/21 03:24:03;;;;;;;31.30;15.30;;;1.00;99.90;;;;;;4949840;29;20046;-60
2022/01/21 03:26:29;;;;;;;24.40;13.02;;;1.20;99.90;;;;;;4950211;29;20030;-59
2022/01/21 03:28:58;;;;;;;37.58;16.88;;;1.20;99.90;;;;;;4952760;29;20102;-60
2022/01/21 03:31:24;;;;;;;31.02;17.60;;;1.20;99.90;;;;;;4952301;29;20027;-59
2022/01/21 03:33:50;;;;;;;39.75;24.90;;;1.10;99.90;;;;;;4951326;29;20047;-60
2022/01/21 03:36:16;;;;;;;31.88;14.85;;;1.00;99.90;;;;;;4950208;29;20024;-59
2022/01/21 03:38:43;;;;;;;29.17;14.93;;;1.20;99.90;;;;;;4949832;29;20110;-59
2022/01/21 03:41:09;;;;;;;33.50;16.33;;;1.10;99.90;;;;;;4951891;28;20500;-59
2022/01/21 03:43:35;;;;;;;51.78;40.35;;;1.00;99.90;;;;;;4952599;29;20058;-59
2022/01/21 03:46:02;;;;;;;42.53;29.35;;;0.80;99.90;;;;;;4949811;29;20023;-59
2022/01/21 03:48:28;;;;;;;41.88;27.13;;;0.70;99.90;;;;;;4950320;29;20030;-60
2022/01/21 03:50:54;;;;;;;41.60;25.08;;;0.50;99.90;;;;;;4950057;29;20467;-59
2022/01/21 03:53:20;;;;;;;48.55;36.33;;;0.70;99.90;;;;;;4951164;29;20136;-59
2022/01/21 03:55:46;;;;;;;29.50;16.15;;;0.70;99.90;;;;;;4954098;28;20101;-59
2022/01/21 03:58:13;;;;;;;33.15;16.33;;;0.80;99.90;;;;;;4949832;29;20047;-59
2022/01/21 04:00:44;;;;;;;38.17;21.23;;;0.90;99.90;;;;;;4950221;29;20021;-59
2022/01/21 04:03:10;;;;;;;38.17;18.38;;;0.90;99.90;;;;;;4949762;29;20043;-60
2022/01/21 04:05:36;;;;;;;36.47;19.40;;;0.70;99.90;;;;;;4949751;29;20396;-59
2022/01/21 04:08:03;;;;;;;43.13;22.83;;;0.60;99.90;;;;;;4951992;28;20050;-59
2022/01/21 04:10:29;;;;;;;41.17;22.55;;;0.60;99.90;;;;;;4951771;29;20031;-59
2022/01/21 04:12:55;;;;;;;59.35;34.40;;;0.70;99.90;;;;;;4951050;29;20039;-58
2022/01/21 04:15:22;;;;;;;56.35;28.83;;;0.60;99.90;;;;;;4949592;29;20051;-59
2022/01/21 04:17:47;;;;;;;59.13;35.55;;;0.70;99.90;;;;;;4949844;29;20047;-59
2022/01/21 04:20:13;;;;;;;49.70;26.30;;;0.50;99.90;;;;;;4949957;29;20024;-59
2022/01/21 04:22:40;;;;;;;29.88;16.38;;;0.40;99.90;;;;;;4952809;29;20074;-59
2022/01/21 04:25:06;;;;;;;33.35;15.38;;;0.30;99.90;;;;;;4952158;28;20063;-59
2022/01/21 04:27:32;;;;;;;31.30;15.20;;;0.20;99.90;;;;;;4953305;29;20020;-59
2022/01/21 04:29:58;;;;;;;39.65;21.08;;;0.20;99.90;;;;;;4953155;29;20034;-59
2022/01/21 04:32:24;;;;;;;32.08;17.48;;;0.20;99.90;;;;;;4954531;29;20485;-59
2022/01/21 04:34:50;;;;;;;31.92;16.40;;;0.10;99.90;;;;;;4955868;29;20142;-59
2022/01/21 04:37:17;;;;;;;32.95;17.08;;;0.20;99.90;;;;;;4954201;29;20523;-59
2022/01/21 04:40:00;;;;;;;30.55;16.00;;;0.20;99.90;;;;;;4953567;29;20038;-59
2022/01/21 04:47:54;;;;;;;37.75;19.58;;;0.20;99.90;;;;;;4953403;29;20038;-59
2022/01/21 04:50:20;;;;;;;39.10;22.42;;;0.10;99.90;;;;;;4954426;29;20028;-59
2022/01/21 04:52:46;;;;;;;37.17;22.85;;;0.10;99.90;;;;;;4957011;28;20079;-59
2022/01/21 04:55:11;;;;;;;42.78;22.85;;;0.00;99.90;;;;;;4952750;28;20031;-59
2022/01/21 04:57:37;;;;;;;37.72;22.63;;;0.10;99.90;;;;;;4953253;28;20484;-59
2022/01/21 05:00:06;;;;;;;42.30;22.10;;;0.00;99.90;;;;;;4953061;29;20035;-59
2022/01/21 05:02:34;;;;;;;42.95;23.02;;;-0.10;99.90;;;;;;4953043;28;20020;-59
2022/01/21 05:04:59;;;;;;;49.88;23.60;;;0.00;99.90;;;;;;4955429;28;20396;-59
2022/01/21 05:07:27;;;;;;;44.08;25.13;;;0.00;99.90;;;;;;4954511;28;20026;-59
2022/01/21 05:09:53;;;;;;;41.03;24.00;;;-0.10;99.90;;;;;;4952570;29;20043;-59
2022/01/21 05:12:21;;;;;;;45.63;23.33;;;-0.10;99.90;;;;;;4954119;29;20042;-59
2022/01/21 05:15:04;;;;;;;38.80;20.00;;;0.00;99.90;;;;;;4952690;29;20027;-59
2022/01/21 05:17:30;;;;;;;36.20;21.30;;;0.10;99.90;;;;;;4939322;29;20508;-59
2022/01/21 05:19:56;;;;;;;34.22;18.83;;;0.10;99.90;;;;;;4955148;28;20038;-58
2022/01/21 05:22:22;;;;;;;37.47;19.75;;;0.10;99.90;;;;;;4954243;28;20027;-59
2022/01/21 05:24:49;;;;;;;29.38;16.45;;;0.10;99.90;;;;;;4952195;29;20066;-59
2022/01/21 05:27:16;;;;;;;44.00;20.38;;;0.20;99.90;;;;;;4952331;28;20035;-59
2022/01/21 05:29:42;;;;;;;38.47;20.40;;;0.20;99.90;;;;;;4953940;29;20031;-59
2022/01/21 05:32:08;;;;;;;39.67;19.50;;;0.20;99.90;;;;;;4954033;28;20029;-59
2022/01/21 05:34:34;;;;;;;36.13;18.45;;;0.20;99.90;;;;;;4954300;28;20389;-59
2022/01/21 05:37:00;;;;;;;37.03;21.35;;;0.10;99.90;;;;;;4952207;28;20035;-58
2022/01/21 05:39:26;;;;;;;36.03;19.13;;;0.10;99.90;;;;;;4952254;29;20030;-59
2022/01/21 05:41:53;;;;;;;33.05;17.75;;;0.10;99.90;;;;;;4952394;29;20035;-59
2022/01/21 05:46:57;;;;;;;38.15;19.40;;;-0.10;99.90;;;;;;4954487;28;20496;-59
2022/01/21 05:49:25;;;;;;;37.25;21.00;;;-0.20;99.90;;;;;;4953598;29;20034;-59
2022/01/21 05:52:03;;;;;;;35.65;21.02;;;-0.30;99.90;;;;;;4953375;29;20042;-59
2022/01/21 05:54:29;;;;;;;36.30;20.50;;;-0.20;99.90;;;;;;4951715;28;20508;-59
2022/01/21 05:56:55;;;;;;;38.65;20.98;;;-0.10;99.90;;;;;;4951951;28;20031;-59
2022/01/21 05:59:22;;;;;;;31.05;16.77;;;-0.20;99.90;;;;;;4967052;28;20031;-59
2022/01/21 06:01:48;;;;;;;36.65;19.65;;;-0.30;99.90;;;;;;4955158;28;20024;-59
2022/01/21 06:04:14;;;;;;;33.38;19.30;;;-0.30;99.90;;;;;;4953963;29;20023;-59
2022/01/21 06:06:39;;;;;;;37.60;21.48;;;-0.40;99.90;;;;;;4951845;29;20038;-59
2022/01/21 06:09:06;;;;;;;30.40;17.95;;;-0.30;99.90;;;;;;4953083;29;20065;-59
2022/01/21 06:11:32;;;;;;;38.10;18.98;;;-0.10;99.90;;;;;;4951738;29;20027;-59
2022/01/21 06:14:00;;;;;;;37.67;21.52;;;-0.20;99.90;;;;;;4953907;28;20050;-59
2022/01/21 06:16:26;;;;;;;43.03;26.90;;;-0.30;99.90;;;;;;4952856;28;20019;-59
2022/01/21 06:18:52;;;;;;;47.75;34.95;;;-0.40;99.90;;;;;;4951503;29;20028;-58
2022/01/21 06:21:18;;;;;;;46.47;26.05;;;-0.50;99.90;;;;;;4951718;29;20027;-59
2022/01/21 06:23:43;;;;;;;36.50;19.48;;;-0.40;99.90;;;;;;4951474;29;20031;-59
2022/01/21 06:26:09;;;;;;;36.15;19.23;;;-0.30;99.90;;;;;;4953150;29;20118;-59
2022/01/21 06:28:35;;;;;;;36.33;17.98;;;-0.30;99.90;;;;;;4954002;29;20055;-59
2022/01/21 06:31:01;;;;;;;34.60;17.83;;;-0.30;99.90;;;;;;4952465;29;20506;-59
2022/01/21 06:33:27;;;;;;;34.92;15.85;;;-0.30;99.90;;;;;;4944837;28;20074;-59
2022/01/21 06:35:53;;;;;;;31.85;16.58;;;-0.20;99.90;;;;;;4940635;29;20023;-59
2022/01/21 06:38:20;;;;;;;30.77;16.35;;;-0.20;99.90;;;;;;4951806;29;20388;-59
2022/01/21 06:40:47;;;;;;;36.90;17.40;;;-0.20;99.90;;;;;;4955404;28;20102;-59
2022/01/21 06:43:13;;;;;;;28.73;16.33;;;-0.30;99.90;;;;;;4950706;29;20407;-59
2022/01/21 06:45:40;;;;;;;33.95;19.65;;;-0.30;99.90;;;;;;4950645;29;20031;-59
2022/01/21 06:48:05;;;;;;;73.18;49.15;;;-0.50;99.90;;;;;;4952180;28;20131;-59
2022/01/21 06:50:33;;;;;;;101.10;72.13;;;-0.50;99.90;;;;;;4951101;29;20111;-58
2022/01/21 06:52:59;;;;;;;51.05;33.35;;;-0.50;99.90;;;;;;4953267;28;20035;-58
2022/01/21 06:55:25;;;;;;;53.28;36.15;;;-0.60;99.90;;;;;;4952582;28;20489;-59
2022/01/21 06:57:50;;;;;;;44.90;23.45;;;-0.70;99.90;;;;;;4951109;28;20030;-58
2022/01/21 07:00:19;;;;;;;35.63;19.02;;;-0.50;99.90;;;;;;4950459;28;20101;-59
2022/01/21 07:02:49;;;;;;;44.10;24.55;;;-0.40;99.90;;;;;;4950877;29;20028;-58
2022/01/21 07:05:16;;;;;;;41.75;31.55;;;-0.50;99.90;;;;;;4950115;28;20091;-59
2022/01/21 07:07:42;;;;;;;37.40;22.45;;;-0.50;99.90;;;;;;4954270;29;20051;-59
2022/01/21 07:10:11;;;;;;;43.75;21.30;;;-0.60;99.90;;;;;;4951780;28;20484;-59
2022/01/21 07:12:37;;;;;;;42.03;29.42;;;-0.50;99.90;;;;;;4950282;28;20043;-58
2022/01/21 07:15:08;;;;;;;49.08;28.35;;;-0.50;99.90;;;;;;4950137;29;20042;-58
2022/01/21 07:17:34;;;;;;;33.60;20.98;;;-0.30;99.90;;;;;;4950445;28;20023;-58
2022/01/21 07:20:00;;;;;;;93.72;61.08;;;-0.50;99.90;;;;;;4951540;28;20366;-58
2022/01/21 07:22:26;;;;;;;80.38;51.22;;;-0.50;99.90;;;;;;4952308;29;20019;-59
2022/01/21 07:24:52;;;;;;;48.90;26.52;;;-0.40;99.90;;;;;;4950336;29;20082;-57
2022/01/21 07:27:18;;;;;;;53.28;33.47;;;-0.40;99.90;;;;;;4951742;29;20019;-59
2022/01/21 07:29:44;;;;;;;73.68;50.35;;;-0.60;99.90;;;;;;4950129;29;20542;-58
2022/01/21 07:32:10;;;;;;;49.10;29.70;;;-0.40;99.90;;;;;;4952012;29;20031;-59
2022/01/21 07:34:36;;;;;;;60.22;38.30;;;-0.40;99.90;;;;;;4952899;29;20492;-59
2022/01/21 07:37:02;;;;;;;63.78;42.20;;;-0.30;99.90;;;;;;4949909;29;20031;-58
2022/01/21 07:39:28;;;;;;;47.08;29.23;;;-0.30;99.90;;;;;;4950435;29;20054;-59
2022/01/21 07:41:54;;;;;;;47.65;30.98;;;-0.40;99.90;;;;;;4949943;29;20053;-59
2022/01/21 07:44:20;;;;;;;62.90;42.53;;;-0.30;99.90;;;;;;4949982;29;20039;-59
2022/01/21 07:46:46;;;;;;;62.10;43.88;;;-0.30;99.90;;;;;;4954240;28;20488;-59
2022/01/21 07:49:12;;;;;;;78.07;55.47;;;-0.10;99.90;;;;;;4951844;29;20035;-59
2022/01/21 07:51:38;;;;;;;52.33;36.67;;;-0.10;99.90;;;;;;4949844;29;20400;-59
2022/01/21 07:54:04;;;;;;;24.92;12.50;;;0.20;99.90;;;;;;4949479;29;20122;-59
2022/01/21 07:56:33;;;;;;;22.65;13.07;;;0.50;99.90;;;;;;4950300;28;20118;-58
2022/01/21 07:58:59;;;;;;;30.58;21.00;;;1.10;99.90;;;;;;4951663;28;20046;-58
2022/01/21 08:01:25;;;;;;;47.55;37.05;;;1.80;99.90;;;;;;4951537;28;20027;-57
2022/01/21 08:03:51;;;;;;;26.35;17.75;;;2.30;99.90;;;;;;4949853;29;20039;-59
2022/01/21 08:06:17;;;;;;;24.63;11.60;;;2.30;99.90;;;;;;4950757;29;20023;-59
2022/01/21 08:08:43;;;;;;;36.20;27.30;;;2.60;99.90;;;;;;4949692;29;20046;-59
2022/01/21 08:11:08;;;;;;;16.38;9.00;;;2.50;99.90;;;;;;4951370;29;20040;-59
2022/01/21 08:13:34;;;;;;;59.13;45.40;;;2.80;99.90;;;;;;4951719;29;20043;-59
2022/01/21 08:16:00;;;;;;;48.63;34.90;;;2.50;99.90;;;;;;4949691;29;20031;-59
2022/01/21 08:18:26;;;;;;;46.72;29.25;;;2.80;99.90;;;;;;4949368;29;20027;-59
2022/01/21 08:20:52;;;;;;;26.65;12.95;;;3.90;99.90;;;;;;4949612;29;20104;-59
2022/01/21 08:23:19;;;;;;;19.02;10.13;;;4.30;99.90;;;;;;4949818;28;20445;-59
2022/01/21 08:25:45;;;;;;;19.63;11.05;;;5.20;99.90;;;;;;4953394;29;20054;-59
2022/01/21 08:28:11;;;;;;;26.00;14.98;;;4.90;99.90;;;;;;4950596;29;20466;-58
2022/01/21 08:30:37;;;;;;;26.88;14.80;;;5.60;99.90;;;;;;4949491;28;20028;-59
2022/01/21 08:33:04;;;;;;;29.23;15.93;;;5.90;99.90;;;;;;4949657;29;20051;-59
2022/01/21 08:35:30;;;;;;;31.23;20.08;;;5.90;99.90;;;;;;4949557;28;20032;-59
2022/01/21 08:37:56;;;;;;;20.48;10.68;;;5.60;99.90;;;;;;4951909;28;20385;-59
2022/01/21 08:40:23;;;;;;;21.90;11.38;;;6.00;99.90;;;;;;4950766;29;20389;-59
2022/01/21 08:42:50;;;;;;;19.63;8.63;;;6.80;99.90;;;;;;4948754;29;20103;-58
2022/01/21 08:45:16;;;;;;;13.23;6.05;;;6.40;99.90;;;;;;4950775;28;20050;-60
2022/01/21 08:47:42;;;;;;;18.05;9.48;;;6.10;99.90;;;;;;4949341;28;20485;-59
2022/01/21 08:50:11;;;;;;;13.45;7.85;;;6.80;99.90;;;;;;4950861;28;20311;-59
2022/01/21 08:52:38;;;;;;;18.30;8.90;;;6.70;99.90;;;;;;4952077;29;20042;-59
2022/01/21 08:55:11;;;;;;;13.98;6.45;;;6.90;99.90;;;;;;4948934;28;20047;-58
2022/01/21 08:57:40;;;;;;;18.95;7.40;;;7.00;99.90;;;;;;4948469;28;20476;-58
2022/01/21 09:00:18;;;;;;;15.82;6.80;;;6.00;99.90;;;;;;4949533;28;20035;-59
2022/01/21 09:02:44;;;;;;;21.23;13.20;;;6.60;99.90;;;;;;4949137;28;20031;-58
2022/01/21 09:05:10;;;;;;;14.27;5.95;;;6.50;99.90;;;;;;4949640;29;20024;-58
2022/01/21 09:07:36;;;;;;;15.52;6.25;;;7.90;99.90;;;;;;4952809;29;20031;-59
2022/01/21 09:10:04;;;;;;;11.30;4.32;;;8.00;99.90;;;;;;4949772;28;20392;-58
2022/01/21 09:12:30;;;;;;;14.27;5.00;;;6.70;99.90;;;;;;4952298;28;20233;-58
2022/01/21 09:14:55;;;;;;;12.48;5.72;;;8.30;99.90;;;;;;4952568;29;20038;-58
2022/01/21 09:17:21;;;;;;;12.88;6.45;;;8.80;99.90;;;;;;4953041;28;20031;-58
2022/01/21 09:19:47;;;;;;;14.88;6.35;;;7.40;99.90;;;;;;4956420;28;20086;-58
2022/01/21 09:22:13;;;;;;;13.32;5.32;;;7.50;99.90;;;;;;4952518;29;20028;-58
2022/01/21 09:24:39;;;;;;;11.02;4.68;;;7.60;99.90;;;;;;4953548;28;20039;-58
2022/01/21 09:27:05;;;;;;;12.35;4.95;;;9.00;99.90;;;;;;4952315;28;20484;-58
2022/01/21 09:29:32;;;;;;;13.57;4.25;;;9.90;99.90;;;;;;4952673;28;20039;-58
2022/01/21 09:31:58;;;;;;;12.05;4.20;;;9.40;99.90;;;;;;4955351;28;20484;-58
2022/01/21 09:34:26;;;;;;;13.50;4.85;;;10.20;99.90;;;;;;4953960;28;20054;-58
2022/01/21 09:36:55;;;;;;;11.35;4.50;;;7.80;99.90;;;;;;4951970;28;20493;-58
2022/01/21 09:39:20;;;;;;;15.23;4.80;;;8.30;99.90;;;;;;4952071;28;20408;-59
2022/01/21 09:41:48;;;;;;;13.43;5.40;;;7.60;99.90;;;;;;4952600;29;20015;-59
2022/01/21 09:44:16;;;;;;;11.15;4.20;;;8.70;99.90;;;;;;4953665;28;20443;-58
2022/01/21 09:46:46;;;;;;;10.52;4.40;;;7.10;99.90;;;;;;4955983;28;20039;-59
2022/01/21 09:49:27;;;;;;;12.60;4.40;;;8.20;99.90;;;;;;4951959;28;20118;-58
2022/01/21 09:51:56;;;;;;;11.40;4.57;;;7.90;99.90;;;;;;4952002;28;20077;-58
2022/01/21 09:54:25;;;;;;;12.32;5.65;;;7.40;99.90;;;;;;4951279;28;20086;-59
2022/01/21 09:56:57;;;;;;;13.30;5.32;;;9.20;99.90;;;;;;4951828;28;20019;-58
2022/01/21 09:59:26;;;;;;;16.00;8.18;;;7.60;99.90;;;;;;4938054;29;20031;-58
2022/01/21 10:01:55;;;;;;;15.95;7.03;;;10.30;99.90;;;;;;4954706;28;20594;-58
2022/01/21 10:04:25;;;;;;;10.52;5.22;;;11.40;99.90;;;;;;4954713;29;20026;-58
2022/01/21 10:06:53;;;;;;;14.43;4.38;;;10.70;99.90;;;;;;4951869;28;20365;-58
2022/01/21 10:09:21;;;;;;;15.90;6.82;;;8.50;99.90;;;;;;4951543;28;20022;-59
2022/01/21 10:11:49;;;;;;;10.95;4.47;;;8.90;99.90;;;;;;4951730;28;20381;-59
2022/01/21 10:14:19;;;;;;;10.18;4.28;;;7.50;99.90;;;;;;4952358;28;20049;-59
2022/01/21 10:16:46;;;;;;;11.27;4.00;;;7.60;99.90;;;;;;4956059;28;20039;-59
2022/01/21 10:19:12;;;;;;;12.80;5.10;;;7.80;99.90;;;;;;4951375;28;20039;-58
2022/01/21 10:21:43;;;;;;;12.00;4.20;;;6.80;99.90;;;;;;4950775;28;20024;-58
2022/01/21 10:24:17;;;;;;;14.93;4.53;;;8.10;99.90;;;;;;4952370;28;20035;-59
2022/01/21 10:26:49;;;;;;;11.20;4.43;;;8.00;99.90;;;;;;4951836;29;20081;-59
2022/01/21 10:29:16;;;;;;;13.27;4.15;;;7.70;99.90;;;;;;4951935;28;20028;-58
2022/01/21 10:32:01;;;;;;;13.55;4.35;;;9.50;99.90;;;;;;4955047;29;20028;-59
2022/01/21 10:34:28;;;;;;;16.95;5.95;;;8.10;99.90;;;;;;4954864;29;20042;-59
2022/01/21 10:37:03;;;;;;;8.90;4.07;;;9.30;99.90;;;;;;4951345;28;20027;-59
2022/01/21 10:39:30;;;;;;;13.65;6.28;;;8.30;99.90;;;;;;4950875;29;20536;-59
2022/01/21 10:41:57;;;;;;;13.57;4.07;;;8.60;99.90;;;;;;4952579;28;20489;-59
2022/01/21 10:44:30;;;;;;;14.77;5.95;;;9.40;99.90;;;;;;4951264;28;20058;-58
2022/01/21 10:47:02;;;;;;;9.07;4.00;;;7.70;99.90;;;;;;4953289;28;20027;-58
2022/01/21 10:49:30;;;;;;;9.25;4.00;;;6.40;99.90;;;;;;4952582;29;20128;-59
2022/01/21 10:51:56;;;;;;;8.93;3.97;;;7.00;99.90;;;;;;4950968;28;20035;-59
2022/01/21 10:54:26;;;;;;;11.10;4.20;;;7.30;99.90;;;;;;4950705;28;20081;-59
2022/01/21 10:57:07;;;;;;;11.35;3.95;;;8.00;99.90;;;;;;4950940;28;20106;-59
2022/01/21 11:00:05;;;;;;;10.82;3.78;;;9.60;99.90;;;;;;4937434;29;20062;-59
2022/01/21 11:02:42;;;;;;;12.13;3.75;;;9.90;99.90;;;;;;4938866;29;20437;-59
2022/01/21 11:05:31;;;;;;;12.32;4.25;;;7.00;99.90;;;;;;4952477;28;20106;-59
2022/01/21 11:08:07;;;;;;;11.43;4.38;;;7.40;99.90;;;;;;4952910;28;20030;-59
2022/01/21 11:10:36;;;;;;;10.27;4.07;;;7.00;99.90;;;;;;4952858;29;20059;-59
2022/01/21 11:13:18;;;;;;;11.50;3.78;;;7.20;99.90;;;;;;4950580;28;20070;-57
2022/01/21 11:15:54;;;;;;;10.57;3.42;;;7.70;99.90;;;;;;4950311;28;20504;-59
2022/01/21 11:18:21;;;;;;;10.65;4.05;;;8.40;99.90;;;;;;4950428;28;20108;-58
2022/01/21 11:20:56;;;;;;;11.82;3.90;;;8.20;99.90;;;;;;4951885;28;20053;-59
2022/01/21 11:23:23;;;;;;;10.43;3.65;;;7.70;99.90;;;;;;4936236;29;20022;-59
2022/01/21 11:26:01;;;;;;;12.45;3.83;;;7.80;99.90;;;;;;4954401;28;20067;-59
2022/01/21 11:28:39;;;;;;;13.93;4.47;;;6.40;99.90;;;;;;4953848;29;20432;-59
2022/01/21 11:31:05;;;;;;;15.93;4.00;;;6.60;99.90;;;;;;4950290;28;20031;-58
2022/01/21 11:33:31;;;;;;;16.92;7.70;;;7.40;99.90;;;;;;4950273;28;20031;-59
2022/01/21 11:35:57;;;;;;;14.57;6.57;;;8.00;99.90;;;;;;4949475;28;20381;-59
2022/01/21 11:38:28;;;;;;;13.93;4.68;;;7.30;99.90;;;;;;4950733;29;20042;-59
2022/01/21 11:40:54;;;;;;;14.93;5.18;;;6.80;99.90;;;;;;4953152;28;20042;-59
2022/01/21 11:43:21;;;;;;;9.50;4.13;;;7.00;99.90;;;;;;4952579;28;20047;-59
2022/01/21 11:48:52;;;;;;;7.82;3.30;;;7.60;99.90;;;;;;4949901;28;20062;-59
2022/01/21 11:51:23;;;;;;;12.85;5.43;;;6.90;99.90;;;;;;4947798;28;20027;-59
2022/01/21 11:54:13;;;;;;;10.68;4.22;;;7.20;99.90;;;;;;4950084;28;20043;-59
2022/01/21 11:56:55;;;;;;;11.63;3.63;;;7.00;99.90;;;;;;4937142;29;20063;-59
2022/01/21 12:01:57;;;;;;;12.10;5.55;;;6.80;99.90;;;;;;4952704;29;20035;-59
2022/01/21 12:04:41;;;;;;;9.85;3.95;;;6.80;99.90;;;;;;4951322;28;20031;-59
2022/01/21 12:07:33;;;;;;;13.27;4.82;;;7.30;99.90;;;;;;4949894;28;20041;-59
2022/01/21 12:10:10;;;;;;;15.18;7.50;;;7.10;99.90;;;;;;4939333;29;20126;-59
2022/01/21 12:12:49;;;;;;;13.38;5.50;;;6.70;99.90;;;;;;4949611;28;20081;-59
2022/01/21 12:15:33;;;;;;;14.07;4.07;;;7.40;99.90;;;;;;4949572;28;20117;-59
2022/01/21 12:18:10;;;;;;;9.18;3.60;;;7.00;99.90;;;;;;4949685;28;20031;-59
2022/01/21 12:20:36;;;;;;;11.40;4.97;;;6.80;99.90;;;;;;4950893;28;20045;-59
2022/01/21 12:23:14;;;;;;;16.92;7.40;;;6.70;99.90;;;;;;4952043;28;20373;-58
2022/01/21 12:26:14;;;;;;;12.82;3.85;;;6.90;99.90;;;;;;4952648;29;20059;-59
2022/01/21 12:28:44;;;;;;;12.35;3.42;;;7.00;99.90;;;;;;4953083;29;20031;-59
2022/01/21 12:31:12;;;;;;;7.45;3.03;;;6.90;99.90;;;;;;4949431;28;20106;-59
2022/01/21 12:36:32;;;;;;;9.10;3.28;;;6.30;99.90;;;;;;4949224;29;20027;-59
2022/01/21 12:41:34;;;;;;;9.88;3.40;;;5.80;99.90;;;;;;4949639;28;20031;-59
2022/01/21 12:44:03;;;;;;;10.88;3.42;;;6.30;99.90;;;;;;4951661;28;20530;-59
2022/01/21 12:46:33;;;;;;;13.32;3.90;;;5.70;99.90;;;;;;4954336;28;20032;-59
2022/01/21 12:49:01;;;;;;;9.30;3.80;;;5.70;99.90;;;;;;4952671;28;20035;-59
2022/01/21 12:56:57;;;;;;;11.30;3.17;;;5.80;99.90;;;;;;4942281;29;20053;-59
2022/01/21 12:59:26;;;;;;;10.15;3.05;;;6.10;99.90;;;;;;4940191;29;20397;-59
2022/01/21 13:01:52;;;;;;;11.95;5.45;;;5.80;99.90;;;;;;4956090;28;20019;-59
2022/01/21 13:04:39;;;;;;;11.52;3.60;;;5.50;99.90;;;;;;4953472;29;20443;-58
2022/01/21 13:07:13;;;;;;;12.98;4.28;;;5.50;99.90;;;;;;4952713;28;20030;-59
2022/01/21 13:09:53;;;;;;;;;;;5.70;99.90;;;;;;4953256;28;20114;-58
2022/01/21 13:12:22;;;;;;;17.27;10.05;;;6.20;99.90;;;;;;4952411;29;19906;-59
2022/01/21 13:14:55;;;;;;;11.05;4.40;;;6.20;99.90;;;;;;4952940;29;20039;-59
2022/01/21 13:17:21;;;;;;;8.83;3.57;;;6.50;99.90;;;;;;4939259;29;20111;-59
2022/01/21 13:19:54;;;;;;;10.80;3.25;;;7.00;99.90;;;;;;4952563;29;20027;-59
2022/01/21 13:22:22;;;;;;;12.57;4.07;;;7.20;99.90;;;;;;4954120;29;20063;-59
2022/01/21 13:25:04;;;;;;;9.65;3.00;;;7.10;99.90;;;;;;4952346;28;20392;-58
2022/01/21 13:27:31;;;;;;;8.52;3.20;;;6.80;99.90;;;;;;4952137;28;20031;-58
2022/01/21 13:30:08;;;;;;;6.82;2.95;;;6.80;99.90;;;;;;4952712;28;20023;-59
2022/01/21 13:32:34;;;;;;;9.85;3.05;;;6.50;99.90;;;;;;4952226;28;20039;-59
2022/01/21 13:35:12;;;;;;;10.50;3.60;;;6.10;99.90;;;;;;4954728;28;20035;-58
2022/01/21 13:37:39;;;;;;;11.43;3.90;;;6.10;99.90;;;;;;4955495;29;20031;-59
2022/01/21 13:40:08;;;;;;;8.40;3.38;;;6.30;99.90;;;;;;4954012;28;20023;-59
2022/01/21 13:42:35;;;;;;;7.90;3.60;;;6.30;99.90;;;;;;4952002;28;20089;-58
2022/01/21 13:45:04;;;;;;;8.77;3.17;;;6.80;99.90;;;;;;4952270;28;20042;-59
2022/01/21 13:47:45;;;;;;;7.90;3.67;;;6.70;99.90;;;;;;4952155;28;20055;-59
2022/01/21 13:50:19;;;;;;;9.65;3.13;;;6.60;99.90;;;;;;4953225;28;20047;-58
2022/01/21 13:52:52;;;;;;;;;;;6.50;99.90;;;;;;4956862;29;20031;-59
2022/01/21 13:55:39;;;;;;;9.33;3.70;;;6.20;99.90;;;;;;4954098;29;19961;-59
2022/01/21 13:58:12;;;;;;;10.15;5.00;;;6.30;99.90;;;;;;4953386;29;20030;-59